createdAt,value
2019-01-12T00:00:14.850Z,49.87
2019-01-12T00:01:24.539Z,54.43
2019-01-12T00:02:34.970Z,51.01
2019-01-12T00:03:44.641Z,51.48
2019-01-12T00:04:54.566Z,51.2
2019-01-12T00:06:04.002Z,49.68
2019-01-12T00:07:13.926Z,50.34
2019-01-12T00:08:23.354Z,53
2019-01-12T00:09:33.270Z,47.97
2019-01-12T00:10:43.194Z,51.76
2019-01-12T00:11:52.619Z,51.29
2019-01-12T00:13:01.546Z,49.29
2019-01-12T00:14:11.476Z,49.29
2019-01-12T00:15:20.926Z,49.2
2019-01-12T00:16:30.352Z,49.2
2019-01-12T00:17:40.033Z,46.83
2019-01-12T00:18:49.717Z,47.77
2019-01-12T00:19:59.147Z,49.58
2019-01-12T00:21:08.331Z,48.72
2019-01-12T00:22:17.752Z,46.06
2019-01-12T00:23:27.422Z,47.02
2019-01-12T00:24:36.857Z,47.11
2019-01-12T00:25:46.782Z,45.87
2019-01-12T00:26:55.708Z,45.87
2019-01-12T00:28:05.141Z,46.92
2019-01-12T00:29:14.333Z,44.93
2019-01-12T00:30:24.013Z,47.49
2019-01-12T00:31:33.696Z,46.92
2019-01-12T00:32:43.689Z,42.27
2019-01-12T00:33:53.614Z,46.92
2019-01-12T00:35:03.285Z,47.02
2019-01-12T00:36:12.723Z,47.58
2019-01-12T00:37:22.398Z,47.87
2019-01-12T00:38:32.081Z,44.54
2019-01-12T00:39:41.562Z,47.99
2019-01-12T00:40:51.482Z,49.32
2019-01-12T00:42:01.156Z,49.2
2019-01-12T00:43:11.078Z,47.02
2019-01-12T00:44:20.763Z,48.54
2019-01-12T00:45:30.441Z,47.97
2019-01-12T00:46:40.369Z,47.3
2019-01-12T00:47:49.543Z,46.83
2019-01-12T00:48:59.229Z,48.82
2019-01-12T00:50:08.675Z,47.68
2019-01-12T00:51:18.611Z,48.54
2019-01-12T00:52:28.331Z,47.02
2019-01-12T00:53:38.007Z,45.68
2019-01-12T00:54:47.680Z,46.64
2019-01-12T00:55:57.104Z,48.91
2019-01-12T00:57:06.823Z,47.68
2019-01-12T00:58:16.306Z,47.49
2019-01-12T00:59:26.224Z,46.73
2019-01-12T01:00:35.406Z,46.64
2019-01-12T01:01:44.834Z,49.32
2019-01-12T01:02:54.257Z,47.97
2019-01-12T01:04:03.702Z,50.91
2019-01-12T01:05:13.137Z,51.2
2019-01-12T01:06:22.564Z,49.77
2019-01-12T01:07:32.495Z,52.62
2019-01-12T01:08:41.918Z,50.43
2019-01-12T01:09:51.356Z,49.1
2019-01-12T01:11:00.784Z,50.91
2019-01-12T01:12:10.457Z,50.81
2019-01-12T01:13:19.887Z,46.92
2019-01-12T01:14:29.806Z,49.68
2019-01-12T01:15:39.475Z,52.24
2019-01-12T01:16:49.151Z,49.87
2019-01-12T01:17:58.579Z,52.05
2019-01-12T01:19:08.249Z,49.01
2019-01-12T01:20:17.671Z,53.47
2019-01-12T01:21:27.356Z,52.81
2019-01-12T01:22:37.280Z,53.85
2019-01-12T01:23:47.242Z,54.52
2019-01-12T01:24:56.673Z,52.05
2019-01-12T01:26:06.110Z,51.86
2019-01-12T01:27:16.042Z,52.91
2019-01-12T01:28:25.718Z,53.76
2019-01-12T01:29:35.397Z,53.85
2019-01-12T01:30:45.458Z,55.66
2019-01-12T01:31:55.136Z,52.53
2019-01-12T01:33:05.057Z,54.61
2019-01-12T01:34:14.979Z,52.33
2019-01-12T01:35:24.400Z,52.05
2019-01-12T01:36:33.820Z,53.66
2019-01-12T01:37:43.238Z,52.91
2019-01-12T01:38:53.167Z,51.2
2019-01-12T01:40:02.835Z,48.63
2019-01-12T01:41:12.264Z,48.44
2019-01-12T01:42:22.188Z,45.68
2019-01-12T01:43:32.107Z,46.35
2019-01-12T01:44:42.038Z,44.83
2019-01-12T01:45:51.968Z,42.36
2019-01-12T01:47:01.642Z,40.37
2019-01-12T01:48:11.310Z,38.28
2019-01-12T01:49:21.230Z,37.33
2019-01-12T01:50:30.906Z,37.04
2019-01-12T01:51:40.831Z,35.42
2019-01-12T01:52:50.967Z,35.81
2019-01-12T01:54:00.663Z,35.24
2019-01-12T01:55:10.408Z,35.61
2019-01-12T01:56:20.345Z,34.76
2019-01-12T01:57:30.017Z,33.15
2019-01-12T01:58:39.739Z,32.39
2019-01-12T01:59:49.158Z,31.05
2019-01-12T02:00:58.836Z,30.4
2019-01-12T02:02:08.313Z,31.53
2019-01-12T02:03:17.739Z,31.05
2019-01-12T02:04:27.417Z,32.48
2019-01-12T02:05:37.337Z,31.53
2019-01-12T02:06:47.256Z,32.57
2019-01-12T02:07:56.932Z,31.82
2019-01-12T02:09:06.604Z,29.25
2019-01-12T02:10:16.039Z,26.69
2019-01-12T02:11:25.964Z,23.55
2019-01-12T02:12:35.892Z,19.85
2019-01-12T02:13:45.568Z,16.33
2019-01-12T02:14:55.244Z,13.77
2019-01-12T02:16:04.668Z,11.96
2019-01-12T02:17:14.588Z,11.49
2019-01-12T02:18:24.510Z,12.06
2019-01-12T02:19:34.196Z,11.02
2019-01-12T02:20:44.128Z,11.02
2019-01-12T02:21:53.550Z,11.02
2019-01-12T02:23:03.223Z,13.29
2019-01-12T02:24:13.159Z,13.2
2019-01-12T02:25:22.836Z,13.29
2019-01-12T02:26:32.513Z,13.29
2019-01-12T02:27:41.702Z,12.63
2019-01-12T02:28:50.898Z,12.63
2019-01-12T02:29:59.818Z,12.73
2019-01-12T02:32:10.656Z,13.29
2019-01-12T02:33:20.342Z,12.73
2019-01-12T02:34:30.271Z,12.25
2019-01-12T02:35:39.943Z,13.87
2019-01-12T02:36:49.663Z,13.48
2019-01-12T02:37:59.625Z,14.62
2019-01-12T02:39:09.549Z,14.72
2019-01-12T02:40:19.025Z,14.53
2019-01-12T02:41:28.457Z,14.62
2019-01-12T02:42:38.382Z,15
2019-01-12T02:43:48.077Z,15.29
2019-01-12T02:44:58.008Z,16.33
2019-01-12T02:46:07.826Z,17.76
2019-01-12T02:47:17.754Z,19.18
2019-01-12T02:48:27.432Z,19.95
2019-01-12T02:49:36.854Z,20.8
2019-01-12T02:50:46.782Z,21.66
2019-01-12T02:51:56.503Z,22.22
2019-01-12T02:53:06.433Z,21.66
2019-01-12T02:54:16.109Z,21.17
2019-01-12T02:55:26.046Z,21.55
2019-01-12T02:56:35.460Z,22.51
2019-01-12T02:57:45.137Z,22.41
2019-01-12T02:58:54.810Z,22.7
2019-01-12T03:00:04.535Z,22.8
2019-01-12T03:01:14.222Z,22.8
2019-01-12T03:02:24.152Z,23.93
2019-01-12T03:03:33.826Z,23.55
2019-01-12T03:04:43.770Z,23.45
2019-01-12T03:05:53.722Z,25.17
2019-01-12T03:07:03.423Z,24.79
2019-01-12T03:08:13.357Z,26.12
2019-01-12T03:09:23.035Z,27.26
2019-01-12T03:10:32.740Z,28.02
2019-01-12T03:11:42.421Z,27.16
2019-01-12T03:12:52.357Z,29.16
2019-01-12T03:14:01.786Z,29.63
2019-01-12T03:15:11.723Z,28.59
2019-01-12T03:16:21.437Z,29.73
2019-01-12T03:17:31.378Z,32.48
2019-01-12T03:18:41.306Z,34.48
2019-01-12T03:19:51.234Z,34.57
2019-01-12T03:21:00.914Z,34.95
2019-01-12T03:22:10.867Z,35.14
2019-01-12T03:23:20.556Z,34
2019-01-12T03:24:30.253Z,34.09
2019-01-12T03:25:39.944Z,35.24
2019-01-12T03:26:49.627Z,35.71
2019-01-12T03:27:59.571Z,37.42
2019-01-12T03:29:09.272Z,38.65
2019-01-12T03:30:18.962Z,36.85
2019-01-12T03:31:28.915Z,37.8
2019-01-12T03:32:38.655Z,38.94
2019-01-12T03:33:48.429Z,39.42
2019-01-12T03:34:58.106Z,38.18
2019-01-12T03:36:07.830Z,38.94
2019-01-12T03:37:17.766Z,38.65
2019-01-12T03:38:29.496Z,37.71
2019-01-12T03:39:39.230Z,39.42
2019-01-12T03:40:49.178Z,40.17
2019-01-12T03:41:58.874Z,40.08
2019-01-12T03:43:08.944Z,41.03
2019-01-12T03:44:18.651Z,39.89
2019-01-12T03:45:28.605Z,40.08
2019-01-12T03:46:38.539Z,39.04
2019-01-12T03:47:48.478Z,38.18
2019-01-12T03:48:57.922Z,39.04
2019-01-12T03:50:07.606Z,38.85
2019-01-12T03:51:17.563Z,38.09
2019-01-12T03:52:27.253Z,39.13
2019-01-12T03:53:37.218Z,37.9
2019-01-12T03:54:46.649Z,38.85
2019-01-12T03:55:56.579Z,38.94
2019-01-12T03:57:06.513Z,39.23
2019-01-12T03:58:16.468Z,39.42
2019-01-12T03:59:25.906Z,37.9
2019-01-12T04:00:35.336Z,38.37
2019-01-12T04:01:45.262Z,36.66
2019-01-12T04:02:55.193Z,38.28
2019-01-12T04:04:05.126Z,37.71
2019-01-12T04:05:15.054Z,36.38
2019-01-12T04:06:24.738Z,36.76
2019-01-12T04:07:34.410Z,38.28
2019-01-12T04:08:44.344Z,37.71
2019-01-12T04:09:54.037Z,35.52
2019-01-12T04:11:03.964Z,36.38
2019-01-12T04:12:13.891Z,37.71
2019-01-12T04:13:23.851Z,37.99
2019-01-12T04:14:33.532Z,36.38
2019-01-12T04:15:43.466Z,37.23
2019-01-12T04:16:53.409Z,38.28
2019-01-12T04:18:02.841Z,38.75
2019-01-12T04:19:12.526Z,38.94
2019-01-12T04:20:22.443Z,38.09
2019-01-12T04:21:32.375Z,37.8
2019-01-12T04:22:42.309Z,37.04
2019-01-12T04:23:52.000Z,37.61
2019-01-12T04:25:01.930Z,37.04
2019-01-12T04:26:11.859Z,37.23
2019-01-12T04:27:21.548Z,37.33
2019-01-12T04:28:31.232Z,35.61
2019-01-12T04:29:40.922Z,34.76
2019-01-12T04:30:50.614Z,32.96
2019-01-12T04:32:00.542Z,29.63
2019-01-12T04:33:10.215Z,27.45
2019-01-12T04:34:19.637Z,25.44
2019-01-12T04:35:29.318Z,22.78
2019-01-12T04:36:39.257Z,21.64
2019-01-12T04:37:49.195Z,19.76
2019-01-12T04:38:58.870Z,18.89
2019-01-12T04:40:08.554Z,18.6
2019-01-12T04:41:17.748Z,19.08
2019-01-12T04:42:27.677Z,18.9
2019-01-12T04:43:37.600Z,17.75
2019-01-12T04:44:47.033Z,16.33
2019-01-12T04:45:56.977Z,15.66
2019-01-12T04:47:06.410Z,14.52
2019-01-12T04:48:16.080Z,14.33
2019-01-12T04:49:27.360Z,13.48
2019-01-12T04:50:37.291Z,13.57
2019-01-12T04:51:46.992Z,14.05
2019-01-12T04:52:56.919Z,14.81
2019-01-12T04:54:06.917Z,15.09
2019-01-12T04:55:16.868Z,15
2019-01-12T04:56:26.314Z,14.9
2019-01-12T04:57:35.508Z,17.27
2019-01-12T04:58:45.460Z,17.37
2019-01-12T04:59:55.136Z,17.85
2019-01-12T05:01:05.101Z,18.04
2019-01-12T05:02:14.782Z,19.93
2019-01-12T05:03:24.723Z,19.27
2019-01-12T05:04:34.150Z,20.03
2019-01-12T05:05:43.838Z,19.74
2019-01-12T05:06:53.784Z,21.55
2019-01-12T05:08:03.717Z,22.6
2019-01-12T05:09:13.649Z,22.31
2019-01-12T05:10:23.605Z,22.69
2019-01-12T05:11:33.569Z,22.21
2019-01-12T05:12:43.257Z,21.55
2019-01-12T05:13:53.206Z,22.02
2019-01-12T05:15:02.888Z,22.12
2019-01-12T05:16:12.566Z,22.31
2019-01-12T05:17:22.501Z,22.6
2019-01-12T05:18:32.194Z,23.45
2019-01-12T05:19:42.131Z,22.69
2019-01-12T05:20:51.817Z,22.78
2019-01-12T05:22:01.498Z,22.69
2019-01-12T05:23:11.193Z,24.3
2019-01-12T05:24:21.141Z,25.44
2019-01-12T05:25:31.072Z,25.44
2019-01-12T05:26:40.764Z,25.35
2019-01-12T05:27:50.692Z,25.54
2019-01-12T05:29:00.378Z,25.44
2019-01-12T05:30:10.351Z,24.87
2019-01-12T05:31:22.299Z,24.87
2019-01-12T05:32:32.227Z,23.83
2019-01-12T05:33:41.909Z,24.88
2019-01-12T05:34:51.845Z,24.96
2019-01-12T05:36:01.776Z,25.92
2019-01-12T05:37:11.195Z,24.87
2019-01-12T05:38:20.882Z,24.49
2019-01-12T05:39:30.813Z,24.21
2019-01-12T05:40:40.736Z,23.92
2019-01-12T05:41:50.168Z,22.6
2019-01-12T05:43:00.111Z,20.79
2019-01-12T05:44:09.794Z,20.03
2019-01-12T05:45:19.764Z,19.27
2019-01-12T05:46:29.188Z,18.98
2019-01-12T05:47:39.128Z,18.41
2019-01-12T05:48:48.298Z,17.75
2019-01-12T05:49:58.230Z,17.56
2019-01-12T05:51:07.918Z,16.99
2019-01-12T05:52:17.839Z,16.8
2019-01-12T05:53:27.764Z,15.76
2019-01-12T05:54:37.685Z,15.09
2019-01-12T05:55:47.364Z,16.14
2019-01-12T05:57:05.580Z,16.14
2019-01-12T05:58:15.508Z,19.27
2019-01-12T05:59:25.467Z,19.18
2019-01-12T06:00:34.896Z,19.93
2019-01-12T06:01:44.643Z,21.74
2019-01-12T06:02:54.067Z,22.21
2019-01-12T06:04:03.511Z,22.31
2019-01-12T06:05:13.445Z,23.35
2019-01-12T06:06:22.864Z,23.92
2019-01-12T06:07:32.540Z,24.87
2019-01-12T06:08:42.211Z,26.29
2019-01-12T06:09:51.883Z,26.86
2019-01-12T06:11:01.809Z,27.25
2019-01-12T06:12:11.235Z,27.25
2019-01-12T06:13:21.163Z,26.77
2019-01-12T06:14:30.839Z,26.01
2019-01-12T06:15:40.264Z,24.87
2019-01-12T06:16:49.687Z,26.96
2019-01-12T06:17:59.362Z,27.25
2019-01-12T06:19:08.785Z,27.62
2019-01-12T06:20:18.215Z,27.15
2019-01-12T06:21:28.136Z,27.53
2019-01-12T06:22:37.559Z,30.09
2019-01-12T06:23:47.486Z,31.04
2019-01-12T06:24:56.917Z,31.42
2019-01-12T06:26:06.604Z,30
2019-01-12T06:27:16.533Z,31.42
2019-01-12T06:28:26.455Z,31.04
2019-01-12T06:29:36.380Z,28.48
2019-01-12T06:30:46.054Z,26.86
2019-01-12T06:31:55.231Z,26.39
2019-01-12T06:33:05.165Z,27.06
2019-01-12T06:34:15.102Z,26.96
2019-01-12T06:35:25.037Z,25.35
2019-01-12T06:36:35.117Z,23.64
2019-01-12T06:37:45.079Z,24.68
2019-01-12T06:38:55.005Z,25.15
2019-01-12T06:40:04.933Z,24.4
2019-01-12T06:41:14.607Z,24.49
2019-01-12T06:42:24.281Z,25.15
2019-01-12T06:43:33.951Z,25.73
2019-01-12T06:44:43.872Z,25.63
2019-01-12T06:45:53.040Z,25.15
2019-01-12T06:47:02.961Z,25.25
2019-01-12T06:48:12.893Z,25.15
2019-01-12T06:49:22.572Z,27.53
2019-01-12T06:50:32.320Z,29.9
2019-01-12T06:51:42.242Z,31.23
2019-01-12T06:52:51.671Z,31.99
2019-01-12T06:54:01.348Z,33.42
2019-01-12T06:55:11.274Z,33.42
2019-01-12T06:56:21.198Z,31.8
2019-01-12T06:57:30.619Z,33.42
2019-01-12T06:58:40.541Z,34.75
2019-01-12T06:59:50.464Z,35.88
2019-01-12T07:01:00.386Z,38.26
2019-01-12T07:02:10.074Z,36.65
2019-01-12T07:03:19.503Z,35.69
2019-01-12T07:04:29.188Z,34.65
2019-01-12T07:05:38.862Z,37.97
2019-01-12T07:06:48.882Z,38.07
2019-01-12T07:07:58.308Z,38.45
2019-01-12T07:09:08.230Z,36.46
2019-01-12T07:10:18.210Z,37.69
2019-01-12T07:11:27.884Z,38.16
2019-01-12T07:12:38.817Z,37.69
2019-01-12T07:13:47.738Z,36.82
2019-01-12T07:14:57.411Z,36.74
2019-01-12T07:16:07.349Z,39.11
2019-01-12T07:17:16.776Z,37.95
2019-01-12T07:18:26.748Z,38.35
2019-01-12T07:19:36.173Z,38.92
2019-01-12T07:20:45.840Z,38.24
2019-01-12T07:21:55.525Z,37.01
2019-01-12T07:23:05.450Z,38.05
2019-01-12T07:24:14.877Z,37.57
2019-01-12T07:25:24.548Z,38.14
2019-01-12T07:26:34.472Z,38.9
2019-01-12T07:27:44.396Z,38.81
2019-01-12T07:28:54.069Z,36.44
2019-01-12T07:30:03.499Z,38.9
2019-01-12T07:31:12.923Z,37.1
2019-01-12T07:32:22.597Z,39.28
2019-01-12T07:33:32.265Z,40.14
2019-01-12T07:34:42.186Z,37.29
2019-01-12T07:35:51.863Z,40.04
2019-01-12T07:37:01.544Z,40.89
2019-01-12T07:38:11.468Z,41.37
2019-01-12T07:39:21.150Z,42.7
2019-01-12T07:40:30.850Z,44.4
2019-01-12T07:41:40.521Z,44.88
2019-01-12T07:42:50.198Z,42.7
2019-01-12T07:43:59.879Z,45.26
2019-01-12T07:45:09.561Z,46.69
2019-01-12T07:46:19.235Z,48.01
2019-01-12T07:47:28.910Z,45.92
2019-01-12T07:48:38.589Z,45.45
2019-01-12T07:49:48.511Z,48.89
2019-01-12T07:50:57.931Z,49.43
2019-01-12T07:52:07.354Z,49.63
2019-01-12T07:53:17.050Z,48.49
2019-01-12T07:54:26.723Z,49.72
2019-01-12T07:55:35.900Z,51.43
2019-01-12T07:56:45.586Z,51.05
2019-01-12T07:57:55.008Z,50.76
2019-01-12T07:59:04.682Z,52.28
2019-01-12T08:00:14.408Z,49.82
2019-01-12T08:01:24.339Z,53.33
2019-01-12T08:02:33.768Z,47.63
2019-01-12T08:03:43.188Z,50.89
2019-01-12T08:04:52.869Z,51.05
2019-01-12T08:06:02.292Z,49.15
2019-01-12T08:07:12.266Z,46.61
2019-01-12T08:08:21.693Z,47.66
2019-01-12T08:09:31.622Z,50.01
2019-01-12T08:10:41.303Z,47.73
2019-01-12T08:11:50.485Z,47.06
2019-01-12T08:13:00.163Z,48.11
2019-01-12T08:14:10.094Z,46.97
2019-01-12T08:15:20.026Z,45.92
2019-01-12T08:16:29.739Z,43.86
2019-01-12T08:17:39.464Z,43.84
2019-01-12T08:18:49.145Z,43.27
2019-01-12T08:19:58.817Z,41.56
2019-01-12T08:24:22.998Z,39.11
2019-01-12T08:25:32.979Z,36.05
2019-01-12T08:26:42.911Z,37.19
2019-01-12T08:27:52.339Z,36.05
2019-01-12T08:29:01.269Z,35.96
2019-01-12T08:30:10.994Z,36.44
2019-01-12T08:31:20.424Z,35.3
2019-01-12T08:32:30.356Z,34.06
2019-01-12T08:33:40.031Z,32.92
2019-01-12T08:34:49.702Z,32.17
2019-01-12T08:35:59.126Z,30.46
2019-01-12T08:37:08.553Z,27.89
2019-01-12T08:38:18.027Z,25.9
2019-01-12T08:39:27.707Z,26.28
2019-01-12T08:40:37.380Z,25.05
2019-01-12T08:41:47.065Z,24.76
2019-01-12T08:42:56.992Z,23.53
2019-01-12T08:44:06.672Z,22.58
2019-01-12T08:45:16.345Z,22.86
2019-01-12T08:46:26.021Z,23.05
2019-01-12T08:47:35.695Z,22.58
2019-01-12T08:48:45.426Z,22.67
2019-01-12T08:49:55.354Z,22.86
2019-01-12T08:51:04.297Z,22.58
2019-01-12T08:52:14.241Z,23.53
2019-01-12T08:53:23.678Z,23.34
2019-01-12T08:54:33.354Z,24.57
2019-01-12T08:55:43.277Z,23.34
2019-01-12T08:56:53.207Z,22.86
2019-01-12T08:58:03.185Z,23.44
2019-01-12T08:59:13.107Z,23.91
2019-01-12T09:00:22.776Z,23.72
2019-01-12T09:01:32.452Z,22.67
2019-01-12T09:02:41.875Z,21.73
2019-01-12T09:03:51.547Z,22.77
2019-01-12T09:05:00.972Z,23.15
2019-01-12T09:06:10.400Z,23.44
2019-01-12T09:07:19.824Z,22.77
2019-01-12T09:08:29.532Z,23.53
2019-01-12T09:09:39.221Z,23.24
2019-01-12T09:10:48.680Z,22.58
2019-01-12T09:11:58.659Z,22.58
2019-01-12T09:13:08.337Z,21.73
2019-01-12T09:14:18.258Z,21.54
2019-01-12T09:15:27.683Z,21.73
2019-01-12T09:16:37.361Z,20.78
2019-01-12T09:17:46.796Z,20.11
2019-01-12T09:18:56.507Z,19.26
2019-01-12T09:20:05.702Z,18.41
2019-01-12T09:21:15.629Z,16.89
2019-01-12T09:22:25.554Z,18.02
2019-01-12T09:23:34.976Z,17.36
2019-01-12T09:24:44.650Z,17.17
2019-01-12T09:25:54.578Z,16.79
2019-01-12T09:27:04.498Z,16.51
2019-01-12T09:28:14.425Z,16.51
2019-01-12T09:29:24.102Z,15.28
2019-01-12T09:30:33.782Z,14.61
2019-01-12T09:31:43.449Z,13.95
2019-01-12T09:32:53.122Z,13.09
2019-01-12T09:34:03.050Z,13.66
2019-01-12T09:35:12.730Z,13.38
2019-01-12T09:36:22.440Z,13.28
2019-01-12T09:37:32.113Z,13.19
2019-01-12T09:38:41.788Z,12.34
2019-01-12T09:39:51.458Z,11
2019-01-12T09:41:00.899Z,11.67
2019-01-12T09:42:10.574Z,11.67
2019-01-12T09:43:19.999Z,12.62
2019-01-12T09:44:29.933Z,13.19
2019-01-12T09:45:39.864Z,12.9
2019-01-12T09:46:49.291Z,12.81
2019-01-12T09:47:58.967Z,11.67
2019-01-12T09:49:08.895Z,11.76
2019-01-12T09:50:18.816Z,11.67
2019-01-12T09:51:28.494Z,11.38
2019-01-12T09:52:38.166Z,11.48
2019-01-12T09:53:47.838Z,11.67
2019-01-12T09:54:57.026Z,12.05
2019-01-12T09:56:06.702Z,11.38
2019-01-12T09:57:16.377Z,12.34
2019-01-12T09:58:25.798Z,12.52
2019-01-12T09:59:35.484Z,12.99
2019-01-12T10:00:45.157Z,13.29
2019-01-12T10:01:55.078Z,13.29
2019-01-12T10:03:04.563Z,14.24
2019-01-12T10:04:14.336Z,14.51
2019-01-12T10:05:24.020Z,15.75
2019-01-12T10:06:33.940Z,15.75
2019-01-12T10:07:43.621Z,16.32
2019-01-12T10:08:53.070Z,14.89
2019-01-12T10:10:03.007Z,15.66
2019-01-12T10:11:12.949Z,17.56
2019-01-12T10:12:22.878Z,17.85
2019-01-12T10:13:32.063Z,19.18
2019-01-12T10:14:41.738Z,20.03
2019-01-12T10:15:51.661Z,20.03
2019-01-12T10:17:01.606Z,21.55
2019-01-12T10:18:11.554Z,21.36
2019-01-12T10:19:21.227Z,21.36
2019-01-12T10:20:30.899Z,21.45
2019-01-12T10:21:40.575Z,22.88
2019-01-12T10:22:50.248Z,22.78
2019-01-12T10:23:59.920Z,24.3
2019-01-12T10:25:09.602Z,23.64
2019-01-12T10:26:19.537Z,23.73
2019-01-12T10:27:28.958Z,23.92
2019-01-12T10:28:38.881Z,24.49
2019-01-12T10:29:48.670Z,25.54
2019-01-12T10:30:58.373Z,25.54
2019-01-12T10:32:09.544Z,26.58
2019-01-12T10:33:19.489Z,26.29
2019-01-12T10:34:28.657Z,26.77
2019-01-12T10:35:37.578Z,26.67
2019-01-12T10:36:47.002Z,28
2019-01-12T10:37:56.674Z,28
2019-01-12T10:39:06.602Z,28.29
2019-01-12T10:40:22.827Z,28.48
2019-01-12T10:41:32.526Z,27.62
2019-01-12T10:42:42.197Z,30
2019-01-12T10:43:52.122Z,31.13
2019-01-12T10:45:02.042Z,31.71
2019-01-12T10:46:12.061Z,30.38
2019-01-12T10:47:21.543Z,30.94
2019-01-12T10:48:30.971Z,29.81
2019-01-12T10:49:40.897Z,29.71
2019-01-12T10:50:50.583Z,29.52
2019-01-12T10:52:00.515Z,28.19
2019-01-12T10:53:10.190Z,27.15
2019-01-12T10:54:19.878Z,26.48
2019-01-12T10:55:29.305Z,24.96
2019-01-12T10:56:38.991Z,23.83
2019-01-12T10:57:48.693Z,22.88
2019-01-12T10:58:58.618Z,21.45
2019-01-12T11:00:08.543Z,19.74
2019-01-12T11:01:18.468Z,18.79
2019-01-12T11:02:28.426Z,16.52
2019-01-12T11:03:37.855Z,15.76
2019-01-12T11:04:47.290Z,14.52
2019-01-12T11:05:56.871Z,12.91
2019-01-12T11:07:06.553Z,12.72
2019-01-12T11:08:16.490Z,11.58
2019-01-12T11:09:25.931Z,11.1
2019-01-12T11:10:35.119Z,10.63
2019-01-12T11:11:44.809Z,10.53
2019-01-12T11:12:54.499Z,10.25
2019-01-12T11:14:03.696Z,9.2
2019-01-12T11:15:12.896Z,8.45
2019-01-12T11:16:22.629Z,8.54
2019-01-12T11:17:32.104Z,8.35
2019-01-12T11:18:41.783Z,7.97
2019-01-12T11:19:51.456Z,7.59
2019-01-12T11:21:01.338Z,7.03
2019-01-12T11:22:11.027Z,6.55
2019-01-12T11:23:20.451Z,6.45
2019-01-12T11:24:29.883Z,6.07
2019-01-12T11:25:45.466Z,5.88
2019-01-12T11:26:54.902Z,6.17
2019-01-12T11:28:04.825Z,5.88
2019-01-12T11:29:14.499Z,5.41
2019-01-12T11:30:24.202Z,4.93
2019-01-12T11:31:33.624Z,4.74
2019-01-12T11:32:43.301Z,4.93
2019-01-12T11:33:52.737Z,4.55
2019-01-12T11:35:01.914Z,4.08
2019-01-12T11:36:11.634Z,3.99
2019-01-12T11:37:21.314Z,4.08
2019-01-12T11:38:30.734Z,3.03
2019-01-12T11:39:40.433Z,2.37
2019-01-12T11:40:50.358Z,1.7
2019-01-12T11:42:00.040Z,0.85
2019-01-12T11:43:09.711Z,0
2019-01-12T11:44:19.136Z,0
2019-01-12T11:45:29.059Z,0
2019-01-12T11:46:38.735Z,0
2019-01-12T11:47:48.164Z,0
2019-01-12T11:48:57.602Z,0
2019-01-12T11:50:07.279Z,0
2019-01-12T11:51:16.701Z,0
2019-01-12T11:52:26.622Z,0
2019-01-12T11:53:36.314Z,0
2019-01-12T11:54:46.250Z,0
2019-01-12T11:55:55.950Z,0
2019-01-12T11:57:05.697Z,0
2019-01-12T11:58:21.924Z,0
2019-01-12T11:59:31.141Z,0
2019-01-12T12:00:40.853Z,0
2019-01-12T12:01:50.305Z,0
2019-01-12T12:03:00.234Z,0
2019-01-12T12:04:09.927Z,0
2019-01-12T12:05:19.771Z,0
2019-01-12T12:06:29.230Z,0
2019-01-12T12:07:38.938Z,0
2019-01-12T12:08:48.130Z,0
2019-01-12T12:09:58.090Z,0
2019-01-12T12:11:07.612Z,0
2019-01-12T12:12:17.331Z,0
2019-01-12T12:13:27.028Z,0
2019-01-12T12:14:35.728Z,0
2019-01-12T12:15:44.734Z,0
2019-01-12T12:16:54.669Z,0
2019-01-12T12:18:05.013Z,0
2019-01-12T12:19:14.737Z,0
2019-01-12T12:20:24.453Z,0
2019-01-12T12:21:35.175Z,0
2019-01-12T12:22:44.639Z,0
2019-01-12T12:23:54.115Z,0
2019-01-12T12:25:03.311Z,0
2019-01-12T12:26:13.017Z,0
2019-01-12T12:27:28.472Z,0
2019-01-12T12:28:38.185Z,0
2019-01-12T12:29:47.887Z,0
2019-01-12T12:30:57.090Z,0
2019-01-12T12:32:06.807Z,0
2019-01-12T12:33:16.505Z,0
2019-01-12T12:34:26.189Z,0
2019-01-12T12:35:40.053Z,0
2019-01-12T12:36:49.590Z,0
2019-01-12T12:37:59.284Z,0
2019-01-12T12:39:08.709Z,0
2019-01-12T12:40:18.630Z,0
2019-01-12T12:41:28.555Z,0
2019-01-12T12:42:37.989Z,0
2019-01-12T12:43:47.415Z,0
2019-01-12T12:44:57.343Z,0
2019-01-12T12:46:07.024Z,0
2019-01-12T12:47:16.947Z,0
2019-01-12T12:48:27.982Z,0
2019-01-12T12:49:36.914Z,0
2019-01-12T12:50:46.613Z,0
2019-01-12T12:51:56.074Z,0
2019-01-12T12:53:05.283Z,0
2019-01-12T12:54:14.992Z,0
2019-01-12T12:55:24.703Z,0
2019-01-12T12:56:34.430Z,0
2019-01-12T12:57:43.654Z,0
2019-01-12T12:58:53.003Z,0
2019-01-12T13:00:02.454Z,0
2019-01-12T13:01:12.160Z,0
2019-01-12T13:02:21.594Z,0
2019-01-12T13:03:31.035Z,0
2019-01-12T13:04:40.487Z,0
2019-01-12T13:05:50.192Z,0
2019-01-12T13:06:59.664Z,0
2019-01-12T13:08:08.866Z,0
2019-01-12T13:09:18.556Z,0
2019-01-12T13:10:27.989Z,0
2019-01-12T13:11:37.918Z,0
2019-01-12T13:12:47.591Z,0
2019-01-12T13:13:56.768Z,0
2019-01-12T13:15:06.196Z,0
2019-01-12T13:16:16.022Z,0
2019-01-12T13:17:25.953Z,0
2019-01-12T13:18:35.879Z,0
2019-01-12T13:19:45.799Z,0
2019-01-12T13:20:55.223Z,0
2019-01-12T13:22:04.645Z,0
2019-01-12T13:23:14.084Z,0
2019-01-12T13:24:24.017Z,0
2019-01-12T13:25:33.947Z,0
2019-01-12T13:26:43.874Z,0
2019-01-12T13:27:53.550Z,0
2019-01-12T13:29:03.029Z,0
2019-01-12T13:30:12.754Z,0
2019-01-12T13:31:22.675Z,0
2019-01-12T13:32:32.347Z,0
2019-01-12T13:33:42.025Z,0
2019-01-12T13:34:51.457Z,0
2019-01-12T13:36:01.130Z,0
2019-01-12T13:37:10.824Z,0
2019-01-12T13:38:20.766Z,0
2019-01-12T13:39:34.475Z,0
2019-01-12T13:40:44.151Z,0
2019-01-12T13:41:53.821Z,0
2019-01-12T13:43:03.791Z,0
2019-01-12T13:44:13.474Z,0
2019-01-12T13:45:22.645Z,0
2019-01-12T13:46:32.331Z,0
2019-01-12T13:47:42.415Z,0
2019-01-12T13:48:52.351Z,0
2019-01-12T13:50:02.088Z,0
2019-01-12T13:51:11.767Z,0
2019-01-12T13:52:21.451Z,0
2019-01-12T13:53:31.133Z,0
2019-01-12T13:54:41.082Z,0
2019-01-12T13:55:50.760Z,0
2019-01-12T13:57:00.187Z,0
2019-01-12T13:58:10.070Z,0
2019-01-12T13:59:19.825Z,0
2019-01-12T14:00:29.497Z,0
2019-01-12T14:01:40.075Z,0
2019-01-12T14:02:49.586Z,0
2019-01-12T14:03:59.514Z,0
2019-01-12T14:05:08.940Z,0
2019-01-12T14:06:18.618Z,0
2019-01-12T14:07:28.292Z,0
2019-01-12T14:08:38.847Z,0
2019-01-12T14:09:48.358Z,0
2019-01-12T14:10:58.031Z,0
2019-01-12T14:12:07.958Z,0
2019-01-12T14:13:17.636Z,0
2019-01-12T14:14:27.310Z,0
2019-01-12T14:15:37.238Z,0
2019-01-12T14:16:46.689Z,0
2019-01-12T14:17:56.668Z,0
2019-01-12T14:19:06.092Z,0
2019-01-12T14:20:15.521Z,0
2019-01-12T14:21:25.450Z,0
2019-01-12T14:22:35.126Z,0
2019-01-12T14:23:44.558Z,0
2019-01-12T14:24:54.483Z,0
2019-01-12T14:26:04.168Z,0
2019-01-12T14:27:13.851Z,0
2019-01-12T14:28:23.277Z,0
2019-01-12T14:29:33.207Z,0
2019-01-12T14:30:42.879Z,0
2019-01-12T14:31:52.806Z,0
2019-01-12T14:33:02.236Z,0
2019-01-12T14:34:11.926Z,0
2019-01-12T14:35:21.847Z,0
2019-01-12T14:36:31.817Z,0
2019-01-12T14:37:41.497Z,0
2019-01-12T14:38:51.266Z,0
2019-01-12T14:40:00.948Z,0
2019-01-12T14:41:10.885Z,0
2019-01-12T14:42:20.660Z,0
2019-01-12T14:43:30.584Z,0
2019-01-12T14:44:40.510Z,0
2019-01-12T14:45:49.934Z,0
2019-01-12T14:49:39.956Z,0
2019-01-12T14:50:49.381Z,0
2019-01-12T14:51:59.057Z,0
2019-01-12T14:53:08.991Z,0
2019-01-12T14:54:18.665Z,0
2019-01-12T14:55:28.590Z,0
2019-01-12T14:56:38.263Z,0
2019-01-12T14:57:47.952Z,0
2019-01-12T14:59:04.794Z,0
2019-01-12T15:02:38.001Z,0
2019-01-12T15:03:47.998Z,0.57
2019-01-12T15:04:58.049Z,0.76
2019-01-12T15:06:07.842Z,0
2019-01-12T15:07:17.885Z,0
2019-01-12T15:08:27.882Z,0
2019-01-12T15:09:37.305Z,0
2019-01-12T15:10:46.477Z,0
2019-01-12T15:11:56.405Z,0.38
2019-01-12T15:13:06.341Z,1.32
2019-01-12T15:14:16.281Z,1.42
2019-01-12T15:15:25.961Z,2.09
2019-01-12T15:16:35.937Z,1.8
2019-01-12T15:17:45.660Z,0.47
2019-01-12T15:18:55.348Z,0.76
2019-01-12T15:20:05.032Z,3.51
2019-01-12T15:21:14.958Z,3.7
2019-01-12T15:22:24.881Z,4.56
2019-01-12T15:23:34.811Z,5.03
2019-01-12T15:24:44.237Z,4.84
2019-01-12T15:25:54.178Z,4.84
2019-01-12T15:27:03.850Z,4.46
2019-01-12T15:28:13.278Z,5.6
2019-01-12T15:29:23.294Z,7.98
2019-01-12T15:30:32.969Z,10.06
2019-01-12T15:31:42.397Z,10.92
2019-01-12T15:32:53.071Z,9.12
2019-01-12T15:34:02.794Z,7.31
2019-01-12T15:35:12.719Z,5.22
2019-01-12T15:36:22.392Z,7.12
2019-01-12T15:37:32.317Z,9.4